sensor_id;sensor_type;location;lat;lon;timestamp;pressure;altitude;pressure_sealevel;temperature;humidity
11339;BME280;5724;42.684;23.252;2023-09-07T00:00:20;94821.28;;;19.23;78.92
11339;BME280;5724;42.684;23.252;2023-09-07T00:02:45;94827.59;;;19.20;79.59
11339;BME280;5724;42.684;23.252;2023-09-07T00:05:11;94832.41;;;19.09;80.29
11339;BME280;5724;42.684;23.252;2023-09-07T00:07:38;94816.56;;;19.13;80.41
11339;BME280;5724;42.684;23.252;2023-09-07T00:10:04;94819.72;;;19.15;80.36
11339;BME280;5724;42.684;23.252;2023-09-07T00:12:30;94816.50;;;19.27;80.23
11339;BME280;5724;42.684;23.252;2023-09-07T00:14:57;94810.19;;;19.23;79.71
11339;BME280;5724;42.684;23.252;2023-09-07T00:17:22;94816.16;;;19.18;80.27
11339;BME280;5724;42.684;23.252;2023-09-07T00:19:48;94828.41;;;19.17;80.61
11339;BME280;5724;42.684;23.252;2023-09-07T00:22:15;94811.06;;;19.06;81.15
11339;BME280;5724;42.684;23.252;2023-09-07T00:24:41;94815.81;;;19.05;81.19
11339;BME280;5724;42.684;23.252;2023-09-07T00:27:06;94820.53;;;19.08;81.61
11339;BME280;5724;42.684;23.252;2023-09-07T00:29:34;94820.94;;;19.07;81.42
11339;BME280;5724;42.684;23.252;2023-09-07T00:32:00;94809.88;;;19.07;81.75
11339;BME280;5724;42.684;23.252;2023-09-07T00:34:25;94801.19;;;19.05;82.67
11339;BME280;5724;42.684;23.252;2023-09-07T00:36:51;94802.78;;;18.95;82.78
11339;BME280;5724;42.684;23.252;2023-09-07T00:39:16;94813.47;;;18.97;83.08
11339;BME280;5724;42.684;23.252;2023-09-07T00:41:41;94797.66;;;18.94;83.10
11339;BME280;5724;42.684;23.252;2023-09-07T00:44:07;94809.91;;;18.96;83.92
11339;BME280;5724;42.684;23.252;2023-09-07T00:46:33;94807.16;;;18.93;84.43
11339;BME280;5724;42.684;23.252;2023-09-07T00:48:58;94804.00;;;18.87;84.86
11339;BME280;5724;42.684;23.252;2023-09-07T00:51:24;94801.66;;;18.85;85.67
11339;BME280;5724;42.684;23.252;2023-09-07T00:53:50;94808.78;;;18.83;86.07
11339;BME280;5724;42.684;23.252;2023-09-07T00:56:16;94807.19;;;18.85;86.04
11339;BME280;5724;42.684;23.252;2023-09-07T00:58:42;94795.75;;;18.69;86.60
11339;BME280;5724;42.684;23.252;2023-09-07T01:01:08;94806.38;;;18.81;86.47
11339;BME280;5724;42.684;23.252;2023-09-07T01:03:34;94801.66;;;18.78;86.65
11339;BME280;5724;42.684;23.252;2023-09-07T01:06:04;94804.06;;;18.66;87.07
11339;BME280;5724;42.684;23.252;2023-09-07T01:08:39;94801.69;;;18.75;87.06
11339;BME280;5724;42.684;23.252;2023-09-07T01:11:17;94799.31;;;18.73;86.84
11339;BME280;5724;42.684;23.252;2023-09-07T01:13:43;94794.97;;;18.72;86.75
11339;BME280;5724;42.684;23.252;2023-09-07T01:16:10;94792.56;;;18.71;87.23
11339;BME280;5724;42.684;23.252;2023-09-07T01:18:37;94787.47;;;18.66;87.62
11339;BME280;5724;42.684;23.252;2023-09-07T01:21:05;94800.88;;;18.71;87.45
11339;BME280;5724;42.684;23.252;2023-09-07T01:23:36;94787.44;;;18.62;87.99
11339;BME280;5724;42.684;23.252;2023-09-07T01:26:03;94801.31;;;18.66;88.29
11339;BME280;5724;42.684;23.252;2023-09-07T01:28:29;94791.81;;;18.63;88.23
11339;BME280;5724;42.684;23.252;2023-09-07T01:30:54;94780.34;;;18.57;88.54
11339;BME280;5724;42.684;23.252;2023-09-07T01:33:20;94797.72;;;18.62;88.78
11339;BME280;5724;42.684;23.252;2023-09-07T01:35:46;94789.81;;;18.64;88.76
11339;BME280;5724;42.684;23.252;2023-09-07T01:38:11;94796.91;;;18.61;88.61
11339;BME280;5724;42.684;23.252;2023-09-07T01:40:37;94809.97;;;18.60;88.89
11339;BME280;5724;42.684;23.252;2023-09-07T01:43:02;94794.56;;;18.59;88.82
11339;BME280;5724;42.684;23.252;2023-09-07T01:45:28;94809.19;;;18.64;89.16
11339;BME280;5724;42.684;23.252;2023-09-07T01:47:53;94792.16;;;18.62;89.53
11339;BME280;5724;42.684;23.252;2023-09-07T01:50:19;94794.97;;;18.58;90.17
11339;BME280;5724;42.684;23.252;2023-09-07T01:52:48;94794.56;;;18.56;89.85
11339;BME280;5724;42.684;23.252;2023-09-07T01:55:16;94791.03;;;18.48;90.84
11339;BME280;5724;42.684;23.252;2023-09-07T01:57:41;94796.59;;;18.38;91.65
11339;BME280;5724;42.684;23.252;2023-09-07T02:00:07;94798.94;;;18.46;91.82
11339;BME280;5724;42.684;23.252;2023-09-07T02:02:32;94794.22;;;18.40;92.56
11339;BME280;5724;42.684;23.252;2023-09-07T02:04:58;94783.97;;;18.26;93.60
11339;BME280;5724;42.684;23.252;2023-09-07T02:07:23;94792.22;;;18.33;93.64
11339;BME280;5724;42.684;23.252;2023-09-07T02:09:49;94791.44;;;18.33;93.99
11339;BME280;5724;42.684;23.252;2023-09-07T02:12:14;94789.09;;;18.27;94.63
11339;BME280;5724;42.684;23.252;2023-09-07T02:14:40;94785.16;;;18.18;95.42
11339;BME280;5724;42.684;23.252;2023-09-07T02:17:05;94788.31;;;18.13;94.98
11339;BME280;5724;42.684;23.252;2023-09-07T02:19:31;94787.13;;;18.17;94.91
11339;BME280;5724;42.684;23.252;2023-09-07T02:21:56;94796.59;;;18.23;94.10
11339;BME280;5724;42.684;23.252;2023-09-07T02:24:22;94798.56;;;18.23;94.44
11339;BME280;5724;42.684;23.252;2023-09-07T02:26:48;94793.81;;;18.23;94.42
11339;BME280;5724;42.684;23.252;2023-09-07T02:29:13;94803.31;;;18.22;94.78
11339;BME280;5724;42.684;23.252;2023-09-07T02:31:41;94794.63;;;18.27;95.21
11339;BME280;5724;42.684;23.252;2023-09-07T02:34:07;94807.25;;;18.28;94.75
11339;BME280;5724;42.684;23.252;2023-09-07T02:36:34;94803.31;;;18.26;95.03
11339;BME280;5724;42.684;23.252;2023-09-07T02:39:02;94800.97;;;18.17;94.73
11339;BME280;5724;42.684;23.252;2023-09-07T02:41:31;94815.94;;;18.30;94.58
11339;BME280;5724;42.684;23.252;2023-09-07T02:43:57;94808.84;;;18.29;94.60
11339;BME280;5724;42.684;23.252;2023-09-07T02:46:22;94804.13;;;18.09;95.63
11339;BME280;5724;42.684;23.252;2023-09-07T02:48:47;94818.31;;;18.14;95.41
11339;BME280;5724;42.684;23.252;2023-09-07T02:51:13;94819.13;;;18.15;95.46
11339;BME280;5724;42.684;23.252;2023-09-07T02:53:39;94823.47;;;18.12;95.46
11339;BME280;5724;42.684;23.252;2023-09-07T02:56:04;94817.94;;;18.12;95.73
11339;BME280;5724;42.684;23.252;2023-09-07T02:58:30;94822.69;;;18.15;95.10
11339;BME280;5724;42.684;23.252;2023-09-07T03:00:56;94820.72;;;18.16;94.86
11339;BME280;5724;42.684;23.252;2023-09-07T03:03:21;94827.44;;;18.18;94.34
11339;BME280;5724;42.684;23.252;2023-09-07T03:05:47;94828.22;;;18.26;95.06
11339;BME280;5724;42.684;23.252;2023-09-07T03:08:12;94828.19;;;18.22;94.73
11339;BME280;5724;42.684;23.252;2023-09-07T03:10:38;94834.94;;;18.18;95.40
11339;BME280;5724;42.684;23.252;2023-09-07T03:13:08;94826.22;;;18.12;95.65
11339;BME280;5724;42.684;23.252;2023-09-07T03:15:33;94828.59;;;18.10;96.20
11339;BME280;5724;42.684;23.252;2023-09-07T03:17:59;94823.09;;;17.96;97.32
11339;BME280;5724;42.684;23.252;2023-09-07T03:20:25;94830.97;;;18.05;97.05
11339;BME280;5724;42.684;23.252;2023-09-07T03:22:51;94830.97;;;18.01;97.58
11339;BME280;5724;42.684;23.252;2023-09-07T03:25:16;94831.75;;;17.91;98.33
11339;BME280;5724;42.684;23.252;2023-09-07T03:27:42;94834.53;;;17.98;98.21
11339;BME280;5724;42.684;23.252;2023-09-07T03:30:07;94823.06;;;17.92;98.50
11339;BME280;5724;42.684;23.252;2023-09-07T03:32:33;94833.34;;;17.95;98.67
11339;BME280;5724;42.684;23.252;2023-09-07T03:35:03;94826.22;;;17.91;98.95
11339;BME280;5724;42.684;23.252;2023-09-07T03:37:34;94836.47;;;17.83;99.96
11339;BME280;5724;42.684;23.252;2023-09-07T03:39:59;94828.19;;;17.80;100.00
11339;BME280;5724;42.684;23.252;2023-09-07T03:42:25;94831.75;;;17.80;100.00
11339;BME280;5724;42.684;23.252;2023-09-07T03:44:50;94831.34;;;17.82;100.00
11339;BME280;5724;42.684;23.252;2023-09-07T03:47:16;94827.81;;;17.88;100.00
11339;BME280;5724;42.684;23.252;2023-09-07T03:49:41;94835.72;;;17.90;100.00
11339;BME280;5724;42.684;23.252;2023-09-07T03:52:07;94846.75;;;17.93;100.00
11339;BME280;5724;42.684;23.252;2023-09-07T03:54:32;94847.53;;;17.80;100.00
11339;BME280;5724;42.684;23.252;2023-09-07T03:56:58;94845.16;;;17.85;100.00
11339;BME280;5724;42.684;23.252;2023-09-07T03:59:23;94843.56;;;17.73;100.00
11339;BME280;5724;42.684;23.252;2023-09-07T04:01:49;94840.81;;;17.73;100.00
11339;BME280;5724;42.684;23.252;2023-09-07T04:04:15;94841.22;;;17.83;100.00
11339;BME280;5724;42.684;23.252;2023-09-07T04:06:40;94843.19;;;17.79;100.00
11339;BME280;5724;42.684;23.252;2023-09-07T04:09:05;94841.22;;;17.79;100.00
11339;BME280;5724;42.684;23.252;2023-09-07T04:11:31;94841.19;;;17.76;100.00
11339;BME280;5724;42.684;23.252;2023-09-07T04:13:57;94846.75;;;17.79;100.00
11339;BME280;5724;42.684;23.252;2023-09-07T04:16:22;94841.94;;;17.65;100.00
11339;BME280;5724;42.684;23.252;2023-09-07T04:18:48;94839.59;;;17.60;100.00
11339;BME280;5724;42.684;23.252;2023-09-07T04:21:13;94831.31;;;17.67;100.00
11339;BME280;5724;42.684;23.252;2023-09-07T04:23:38;94838.03;;;17.73;100.00
11339;BME280;5724;42.684;23.252;2023-09-07T04:26:10;94838.78;;;17.63;100.00
11339;BME280;5724;42.684;23.252;2023-09-07T04:28:36;94838.84;;;17.70;100.00
11339;BME280;5724;42.684;23.252;2023-09-07T04:31:02;94830.53;;;17.67;100.00
11339;BME280;5724;42.684;23.252;2023-09-07T04:33:31;94841.19;;;17.76;100.00
11339;BME280;5724;42.684;23.252;2023-09-07T04:36:12;94842.41;;;17.82;100.00
11339;BME280;5724;42.684;23.252;2023-09-07T04:38:39;94845.56;;;17.77;100.00
11339;BME280;5724;42.684;23.252;2023-09-07T04:41:09;94845.16;;;17.71;100.00
11339;BME280;5724;42.684;23.252;2023-09-07T04:43:34;94846.31;;;17.66;100.00
11339;BME280;5724;42.684;23.252;2023-09-07T04:46:00;94847.56;;;17.76;100.00
11339;BME280;5724;42.684;23.252;2023-09-07T04:48:25;94857.03;;;17.79;100.00
11339;BME280;5724;42.684;23.252;2023-09-07T04:51:03;94851.50;;;17.82;100.00
11339;BME280;5724;42.684;23.252;2023-09-07T04:53:30;94854.25;;;17.79;100.00
11339;BME280;5724;42.684;23.252;2023-09-07T04:56:05;94861.38;;;17.94;100.00
11339;BME280;5724;42.684;23.252;2023-09-07T04:58:31;94868.09;;;18.00;100.00
11339;BME280;5724;42.684;23.252;2023-09-07T05:01:03;94864.56;;;17.96;100.00
11339;BME280;5724;42.684;23.252;2023-09-07T05:03:29;94860.59;;;17.97;100.00
11339;BME280;5724;42.684;23.252;2023-09-07T05:05:55;94858.19;;;17.85;100.00
11339;BME280;5724;42.684;23.252;2023-09-07T05:08:21;94863.75;;;17.99;100.00
11339;BME280;5724;42.684;23.252;2023-09-07T05:10:48;94860.59;;;17.93;100.00
11339;BME280;5724;42.684;23.252;2023-09-07T05:13:13;94859.78;;;17.93;100.00
11339;BME280;5724;42.684;23.252;2023-09-07T05:15:48;94859.41;;;18.01;100.00
11339;BME280;5724;42.684;23.252;2023-09-07T05:18:14;94859.44;;;18.05;100.00
11339;BME280;5724;42.684;23.252;2023-09-07T05:20:40;94853.88;;;17.98;100.00
11339;BME280;5724;42.684;23.252;2023-09-07T05:23:20;94858.63;;;17.87;100.00
11339;BME280;5724;42.684;23.252;2023-09-07T05:25:47;94868.91;;;17.97;100.00
11339;BME280;5724;42.684;23.252;2023-09-07T05:28:14;94874.03;;;18.02;100.00
11339;BME280;5724;42.684;23.252;2023-09-07T05:30:40;94874.41;;;18.04;100.00
11339;BME280;5724;42.684;23.252;2023-09-07T05:33:06;94872.06;;;18.10;100.00
11339;BME280;5724;42.684;23.252;2023-09-07T05:35:31;94866.13;;;18.04;100.00
11339;BME280;5724;42.684;23.252;2023-09-07T05:37:58;94868.13;;;18.07;100.00
11339;BME280;5724;42.684;23.252;2023-09-07T05:40:24;94870.09;;;17.96;100.00
11339;BME280;5724;42.684;23.252;2023-09-07T05:42:49;94869.69;;;18.01;100.00
11339;BME280;5724;42.684;23.252;2023-09-07T05:45:15;94875.22;;;18.01;100.00
11339;BME280;5724;42.684;23.252;2023-09-07T05:47:40;94868.13;;;18.07;100.00
11339;BME280;5724;42.684;23.252;2023-09-07T05:50:06;94866.53;;;18.02;100.00
11339;BME280;5724;42.684;23.252;2023-09-07T05:52:32;94868.91;;;18.08;100.00
11339;BME280;5724;42.684;23.252;2023-09-07T05:54:57;94844.00;;;17.90;100.00
11339;BME280;5724;42.684;23.252;2023-09-07T05:57:22;94870.88;;;18.11;100.00
11339;BME280;5724;42.684;23.252;2023-09-07T05:59:48;94871.25;;;18.13;99.40
11339;BME280;5724;42.684;23.252;2023-09-07T06:02:13;94873.25;;;18.12;99.38
11339;BME280;5724;42.684;23.252;2023-09-07T06:04:39;94863.38;;;18.11;99.19
11339;BME280;5724;42.684;23.252;2023-09-07T06:07:04;94877.22;;;18.18;98.76
11339;BME280;5724;42.684;23.252;2023-09-07T06:09:29;94878.00;;;18.19;98.44
11339;BME280;5724;42.684;23.252;2023-09-07T06:11:56;94879.97;;;18.29;97.92
11339;BME280;5724;42.684;23.252;2023-09-07T06:14:22;94883.53;;;18.37;96.84
11339;BME280;5724;42.684;23.252;2023-09-07T06:16:47;94884.72;;;18.36;98.36
11339;BME280;5724;42.684;23.252;2023-09-07T06:19:12;94885.50;;;18.54;97.06
11339;BME280;5724;42.684;23.252;2023-09-07T06:21:38;94885.50;;;18.79;96.31
11339;BME280;5724;42.684;23.252;2023-09-07T06:24:04;94889.38;;;19.10;93.64
11339;BME280;5724;42.684;23.252;2023-09-07T06:26:31;94885.38;;;19.32;91.83
11339;BME280;5724;42.684;23.252;2023-09-07T06:28:57;94891.59;;;19.54;89.78
11339;BME280;5724;42.684;23.252;2023-09-07T06:31:22;94893.94;;;19.70;87.83
11339;BME280;5724;42.684;23.252;2023-09-07T06:33:48;94896.22;;;19.89;86.74
11339;BME280;5724;42.684;23.252;2023-09-07T06:36:13;94904.41;;;20.11;84.65
11339;BME280;5724;42.684;23.252;2023-09-07T06:38:38;94894.81;;;20.22;82.95
11339;BME280;5724;42.684;23.252;2023-09-07T06:41:04;94900.31;;;20.29;83.50
11339;BME280;5724;42.684;23.252;2023-09-07T06:43:30;94900.72;;;20.28;82.36
11339;BME280;5724;42.684;23.252;2023-09-07T06:46:02;94891.44;;;20.52;81.02
11339;BME280;5724;42.684;23.252;2023-09-07T06:48:28;94911.13;;;20.69;79.92
11339;BME280;5724;42.684;23.252;2023-09-07T06:50:53;94905.19;;;20.67;78.72
11339;BME280;5724;42.684;23.252;2023-09-07T06:53:19;94891.66;;;20.72;77.76
11339;BME280;5724;42.684;23.252;2023-09-07T06:55:44;94901.50;;;20.80;77.58
11339;BME280;5724;42.684;23.252;2023-09-07T06:58:10;94907.78;;;20.88;77.19
11339;BME280;5724;42.684;23.252;2023-09-07T07:00:35;94896.06;;;21.07;74.30
11339;BME280;5724;42.684;23.252;2023-09-07T07:03:01;94901.28;;;21.02;75.40
11339;BME280;5724;42.684;23.252;2023-09-07T07:05:26;94892.09;;;21.08;75.12
11339;BME280;5724;42.684;23.252;2023-09-07T07:07:53;94898.97;;;20.93;75.80
11339;BME280;5724;42.684;23.252;2023-09-07T07:10:19;94863.19;;;20.61;73.52
11339;BME280;5724;42.684;23.252;2023-09-07T07:12:44;94890.44;;;20.73;72.93
11339;BME280;5724;42.684;23.252;2023-09-07T07:15:10;94898.34;;;20.78;72.13
11339;BME280;5724;42.684;23.252;2023-09-07T07:17:36;94906.00;;;20.67;73.59
11339;BME280;5724;42.684;23.252;2023-09-07T07:20:02;94908.53;;;20.92;73.14
11339;BME280;5724;42.684;23.252;2023-09-07T07:22:27;94900.44;;;21.08;73.96
11339;BME280;5724;42.684;23.252;2023-09-07T07:24:53;94903.88;;;21.20;72.91
11339;BME280;5724;42.684;23.252;2023-09-07T07:27:18;94905.94;;;21.50;71.62
11339;BME280;5724;42.684;23.252;2023-09-07T07:29:44;94909.22;;;21.41;71.08
11339;BME280;5724;42.684;23.252;2023-09-07T07:32:10;94914.84;;;21.37;70.78
11339;BME280;5724;42.684;23.252;2023-09-07T07:34:36;94921.38;;;21.17;69.95
11339;BME280;5724;42.684;23.252;2023-09-07T07:37:01;94899.47;;;21.26;69.15
11339;BME280;5724;42.684;23.252;2023-09-07T07:39:26;94919.63;;;21.37;70.54
11339;BME280;5724;42.684;23.252;2023-09-07T07:41:52;94930.25;;;21.46;69.64
11339;BME280;5724;42.684;23.252;2023-09-07T07:44:17;94933.50;;;21.71;68.39
11339;BME280;5724;42.684;23.252;2023-09-07T07:46:43;94927.47;;;22.10;67.90
11339;BME280;5724;42.684;23.252;2023-09-07T07:49:08;94927.16;;;22.32;66.88
11339;BME280;5724;42.684;23.252;2023-09-07T07:51:34;94932.91;;;22.17;66.17
11339;BME280;5724;42.684;23.252;2023-09-07T07:53:59;94934.56;;;22.15;66.27
11339;BME280;5724;42.684;23.252;2023-09-07T07:56:25;94934.34;;;22.29;66.12
11339;BME280;5724;42.684;23.252;2023-09-07T07:58:50;94936.31;;;22.32;66.33
11339;BME280;5724;42.684;23.252;2023-09-07T08:01:17;94935.88;;;22.34;65.50
11339;BME280;5724;42.684;23.252;2023-09-07T08:03:43;94943.09;;;22.31;66.04
11339;BME280;5724;42.684;23.252;2023-09-07T08:06:09;94918.28;;;22.13;66.73
11339;BME280;5724;42.684;23.252;2023-09-07T08:08:36;94926.69;;;22.37;65.78
11339;BME280;5724;42.684;23.252;2023-09-07T08:11:01;94923.78;;;22.44;65.19
11339;BME280;5724;42.684;23.252;2023-09-07T08:13:33;94937.44;;;22.35;65.22
11339;BME280;5724;42.684;23.252;2023-09-07T08:16:02;94935.91;;;22.57;63.34
11339;BME280;5724;42.684;23.252;2023-09-07T08:18:28;94923.78;;;22.44;61.90
11339;BME280;5724;42.684;23.252;2023-09-07T08:20:55;94925.09;;;22.36;61.75
11339;BME280;5724;42.684;23.252;2023-09-07T08:23:21;94935.50;;;22.59;61.36
11339;BME280;5724;42.684;23.252;2023-09-07T08:25:48;94922.84;;;22.54;61.15
11339;BME280;5724;42.684;23.252;2023-09-07T08:28:14;94926.94;;;22.46;62.09
11339;BME280;5724;42.684;23.252;2023-09-07T08:30:41;94924.66;;;22.64;62.15
11339;BME280;5724;42.684;23.252;2023-09-07T08:33:06;94915.69;;;22.76;61.10
11339;BME280;5724;42.684;23.252;2023-09-07T08:35:32;94917.34;;;22.74;60.60
11339;BME280;5724;42.684;23.252;2023-09-07T08:38:01;94925.56;;;22.84;61.33
11339;BME280;5724;42.684;23.252;2023-09-07T08:40:30;94929.25;;;23.01;61.20
11339;BME280;5724;42.684;23.252;2023-09-07T08:42:59;94923.31;;;22.99;58.60
11339;BME280;5724;42.684;23.252;2023-09-07T08:45:29;94924.44;;;22.78;57.81
11339;BME280;5724;42.684;23.252;2023-09-07T08:47:58;94914.19;;;22.72;57.43
11339;BME280;5724;42.684;23.252;2023-09-07T08:50:24;94920.91;;;22.74;57.92
11339;BME280;5724;42.684;23.252;2023-09-07T08:52:53;94910.03;;;22.60;57.86
11339;BME280;5724;42.684;23.252;2023-09-07T08:55:22;94901.28;;;22.58;57.95
11339;BME280;5724;42.684;23.252;2023-09-07T08:57:48;94896.63;;;22.24;58.83
11339;BME280;5724;42.684;23.252;2023-09-07T09:00:14;94907.56;;;22.12;58.94
11339;BME280;5724;42.684;23.252;2023-09-07T09:02:42;94901.22;;;22.11;59.52
11339;BME280;5724;42.684;23.252;2023-09-07T09:05:12;94903.59;;;22.09;58.65
11339;BME280;5724;42.684;23.252;2023-09-07T09:07:39;94895.78;;;22.00;59.54
11339;BME280;5724;42.684;23.252;2023-09-07T09:10:08;94902.53;;;21.99;59.37
11339;BME280;5724;42.684;23.252;2023-09-07T09:12:34;94910.28;;;22.15;59.95
11339;BME280;5724;42.684;23.252;2023-09-07T09:15:00;94916.28;;;22.41;58.83
11339;BME280;5724;42.684;23.252;2023-09-07T09:17:29;94902.75;;;22.66;57.97
11339;BME280;5724;42.684;23.252;2023-09-07T09:19:55;94908.88;;;22.81;56.15
11339;BME280;5724;42.684;23.252;2023-09-07T09:22:20;94902.59;;;23.00;55.58
11339;BME280;5724;42.684;23.252;2023-09-07T09:24:49;94913.66;;;23.04;55.43
11339;BME280;5724;42.684;23.252;2023-09-07T09:27:15;94908.69;;;23.15;53.99
11339;BME280;5724;42.684;23.252;2023-09-07T09:29:41;94902.34;;;23.34;53.40
11339;BME280;5724;42.684;23.252;2023-09-07T09:32:07;94886.13;;;23.29;53.03
11339;BME280;5724;42.684;23.252;2023-09-07T09:34:37;94902.41;;;23.11;53.47
11339;BME280;5724;42.684;23.252;2023-09-07T09:37:03;94886.00;;;22.93;53.60
11339;BME280;5724;42.684;23.252;2023-09-07T09:39:29;94895.56;;;22.92;54.34
11339;BME280;5724;42.684;23.252;2023-09-07T09:41:55;94904.44;;;22.83;53.84
11339;BME280;5724;42.684;23.252;2023-09-07T09:44:22;94893.44;;;23.00;54.62
11339;BME280;5724;42.684;23.252;2023-09-07T09:46:55;94898.41;;;23.12;54.42
11339;BME280;5724;42.684;23.252;2023-09-07T09:49:22;94900.72;;;23.17;54.51
11339;BME280;5724;42.684;23.252;2023-09-07T09:51:51;94892.69;;;23.19;52.63
11339;BME280;5724;42.684;23.252;2023-09-07T09:54:21;94886.53;;;22.84;52.63
11339;BME280;5724;42.684;23.252;2023-09-07T09:56:49;94890.50;;;22.83;53.22
11339;BME280;5724;42.684;23.252;2023-09-07T09:59:14;94892.91;;;23.08;53.27
11339;BME280;5724;42.684;23.252;2023-09-07T10:01:45;94859.03;;;22.87;52.71
11339;BME280;5724;42.684;23.252;2023-09-07T10:04:13;94881.47;;;22.76;53.45
11339;BME280;5724;42.684;23.252;2023-09-07T10:06:50;94878.66;;;22.79;53.85
11339;BME280;5724;42.684;23.252;2023-09-07T10:09:16;94881.91;;;22.74;53.47
11339;BME280;5724;42.684;23.252;2023-09-07T10:11:43;94885.22;;;22.93;53.17
11339;BME280;5724;42.684;23.252;2023-09-07T10:14:15;94867.78;;;22.89;53.54
11339;BME280;5724;42.684;23.252;2023-09-07T10:16:55;94877.00;;;22.82;54.46
11339;BME280;5724;42.684;23.252;2023-09-07T10:19:45;94872.22;;;22.82;53.58
11339;BME280;5724;42.684;23.252;2023-09-07T10:22:22;94864.25;;;22.84;53.53
11339;BME280;5724;42.684;23.252;2023-09-07T10:25:07;94874.19;;;22.85;53.42
11339;BME280;5724;42.684;23.252;2023-09-07T10:27:42;94876.97;;;23.09;53.14
11339;BME280;5724;42.684;23.252;2023-09-07T10:30:11;94873.41;;;23.28;53.50
11339;BME280;5724;42.684;23.252;2023-09-07T10:32:44;94867.09;;;23.24;54.79
11339;BME280;5724;42.684;23.252;2023-09-07T10:35:19;94851.88;;;23.09;54.92
11339;BME280;5724;42.684;23.252;2023-09-07T10:37:47;94877.19;;;23.18;54.91
11339;BME280;5724;42.684;23.252;2023-09-07T10:40:18;94862.66;;;23.07;53.96
11339;BME280;5724;42.684;23.252;2023-09-07T10:42:44;94869.97;;;23.21;53.28
11339;BME280;5724;42.684;23.252;2023-09-07T10:45:11;94868.53;;;23.12;54.23
11339;BME280;5724;42.684;23.252;2023-09-07T10:47:41;94863.03;;;23.29;54.10
11339;BME280;5724;42.684;23.252;2023-09-07T10:50:09;94861.38;;;23.31;53.79
11339;BME280;5724;42.684;23.252;2023-09-07T10:52:35;94861.91;;;23.46;53.15
11339;BME280;5724;42.684;23.252;2023-09-07T10:55:01;94865.97;;;23.41;52.58
11339;BME280;5724;42.684;23.252;2023-09-07T10:57:26;94862.53;;;23.54;52.29
11339;BME280;5724;42.684;23.252;2023-09-07T10:59:52;94870.19;;;23.50;52.08
11339;BME280;5724;42.684;23.252;2023-09-07T11:02:20;94864.91;;;23.55;52.11
11339;BME280;5724;42.684;23.252;2023-09-07T11:04:46;94849.88;;;23.49;52.32
11339;BME280;5724;42.684;23.252;2023-09-07T11:07:12;94857.59;;;23.41;51.89
11339;BME280;5724;42.684;23.252;2023-09-07T11:09:42;94853.72;;;23.35;52.36
11339;BME280;5724;42.684;23.252;2023-09-07T11:12:07;94855.94;;;23.24;52.22
11339;BME280;5724;42.684;23.252;2023-09-07T11:14:34;94856.00;;;23.01;52.70
11339;BME280;5724;42.684;23.252;2023-09-07T11:17:01;94863.41;;;23.31;52.14
11339;BME280;5724;42.684;23.252;2023-09-07T11:19:31;94815.28;;;23.07;52.63
11339;BME280;5724;42.684;23.252;2023-09-07T11:21:57;94852.81;;;23.22;52.45
11339;BME280;5724;42.684;23.252;2023-09-07T11:24:22;94858.16;;;23.33;52.57
11339;BME280;5724;42.684;23.252;2023-09-07T11:26:48;94851.75;;;23.36;52.89
11339;BME280;5724;42.684;23.252;2023-09-07T11:29:15;94850.16;;;23.15;52.44
11339;BME280;5724;42.684;23.252;2023-09-07T11:31:41;94845.78;;;23.14;53.57
11339;BME280;5724;42.684;23.252;2023-09-07T11:34:14;94848.09;;;23.19;52.79
11339;BME280;5724;42.684;23.252;2023-09-07T11:36:40;94845.97;;;23.27;53.12
11339;BME280;5724;42.684;23.252;2023-09-07T11:39:06;94845.44;;;23.12;53.58
11339;BME280;5724;42.684;23.252;2023-09-07T11:41:40;94851.34;;;22.94;53.67
11339;BME280;5724;42.684;23.252;2023-09-07T11:44:07;94828.63;;;22.96;54.42
11339;BME280;5724;42.684;23.252;2023-09-07T11:46:32;94841.41;;;22.70;54.59
11339;BME280;5724;42.684;23.252;2023-09-07T11:48:58;94847.81;;;22.67;55.10
11339;BME280;5724;42.684;23.252;2023-09-07T11:51:24;94840.84;;;22.55;55.12
11339;BME280;5724;42.684;23.252;2023-09-07T11:53:49;94846.69;;;22.64;55.11
11339;BME280;5724;42.684;23.252;2023-09-07T11:56:14;94853.22;;;22.54;56.03
11339;BME280;5724;42.684;23.252;2023-09-07T11:58:41;94834.09;;;22.33;55.93
11339;BME280;5724;42.684;23.252;2023-09-07T12:01:07;94833.97;;;22.40;55.75
11339;BME280;5724;42.684;23.252;2023-09-07T12:03:34;94839.53;;;22.40;55.65
11339;BME280;5724;42.684;23.252;2023-09-07T12:06:00;94825.13;;;22.45;55.37
11339;BME280;5724;42.684;23.252;2023-09-07T12:08:25;94838.25;;;22.44;55.28
11339;BME280;5724;42.684;23.252;2023-09-07T12:10:51;94845.94;;;22.37;55.49
11339;BME280;5724;42.684;23.252;2023-09-07T12:13:16;94843.94;;;22.37;55.55
11339;BME280;5724;42.684;23.252;2023-09-07T12:15:41;94839.91;;;22.42;55.28
11339;BME280;5724;42.684;23.252;2023-09-07T12:18:07;94839.03;;;22.45;55.50
11339;BME280;5724;42.684;23.252;2023-09-07T12:20:32;94836.25;;;22.45;55.06
11339;BME280;5724;42.684;23.252;2023-09-07T12:23:01;94826.69;;;22.46;54.68
11339;BME280;5724;42.684;23.252;2023-09-07T12:25:27;94833.13;;;22.43;54.69
11339;BME280;5724;42.684;23.252;2023-09-07T12:27:53;94830.56;;;22.52;54.91
11339;BME280;5724;42.684;23.252;2023-09-07T12:30:19;94840.44;;;22.56;54.55
11339;BME280;5724;42.684;23.252;2023-09-07T12:32:46;94825.72;;;22.56;54.95
11339;BME280;5724;42.684;23.252;2023-09-07T12:35:11;94838.31;;;22.64;54.29
11339;BME280;5724;42.684;23.252;2023-09-07T12:38:24;94832.22;;;22.49;54.33
11339;BME280;5724;42.684;23.252;2023-09-07T12:40:55;94831.91;;;22.44;54.60
11339;BME280;5724;42.684;23.252;2023-09-07T12:43:20;94836.50;;;22.54;54.31
11339;BME280;5724;42.684;23.252;2023-09-07T12:45:46;94839.66;;;22.56;54.61
11339;BME280;5724;42.684;23.252;2023-09-07T12:48:12;94837.34;;;22.51;54.36
11339;BME280;5724;42.684;23.252;2023-09-07T12:50:38;94847.75;;;22.47;54.54
11339;BME280;5724;42.684;23.252;2023-09-07T12:53:05;94842.69;;;22.42;54.54
11339;BME280;5724;42.684;23.252;2023-09-07T12:55:31;94840.19;;;22.47;54.38